sensor_id;sensor_type;location;lat;lon;timestamp;temperature;humidity
7360;DHT22;3720;48.274;7.796;2022-07-29T00:01:19;22.60;99.90
7360;DHT22;3720;48.274;7.796;2022-07-29T00:03:50;22.60;99.90
7360;DHT22;3720;48.274;7.796;2022-07-29T00:06:24;22.50;99.90
7360;DHT22;3720;48.274;7.796;2022-07-29T00:08:56;22.40;99.90
7360;DHT22;3720;48.274;7.796;2022-07-29T00:11:28;22.40;99.90
7360;DHT22;3720;48.274;7.796;2022-07-29T00:14:00;22.40;99.90
7360;DHT22;3720;48.274;7.796;2022-07-29T00:16:32;22.30;99.90
7360;DHT22;3720;48.274;7.796;2022-07-29T00:19:14;22.30;99.90
7360;DHT22;3720;48.274;7.796;2022-07-29T00:21:47;22.30;99.90
7360;DHT22;3720;48.274;7.796;2022-07-29T00:24:20;22.30;99.90
7360;DHT22;3720;48.274;7.796;2022-07-29T00:26:52;22.30;99.90
7360;DHT22;3720;48.274;7.796;2022-07-29T00:29:24;22.30;99.90
7360;DHT22;3720;48.274;7.796;2022-07-29T00:31:55;22.30;99.90
7360;DHT22;3720;48.274;7.796;2022-07-29T00:34:28;22.10;99.90
7360;DHT22;3720;48.274;7.796;2022-07-29T00:37:19;22.00;99.90
7360;DHT22;3720;48.274;7.796;2022-07-29T00:39:51;21.70;99.90
7360;DHT22;3720;48.274;7.796;2022-07-29T00:42:23;21.60;99.90
7360;DHT22;3720;48.274;7.796;2022-07-29T00:44:55;21.50;99.90
7360;DHT22;3720;48.274;7.796;2022-07-29T00:47:27;21.40;99.90
7360;DHT22;3720;48.274;7.796;2022-07-29T00:49:59;21.40;99.90
7360;DHT22;3720;48.274;7.796;2022-07-29T00:52:33;21.40;99.90
7360;DHT22;3720;48.274;7.796;2022-07-29T00:55:10;21.40;99.90
7360;DHT22;3720;48.274;7.796;2022-07-29T00:57:43;21.40;99.90
7360;DHT22;3720;48.274;7.796;2022-07-29T01:00:19;21.20;99.90
7360;DHT22;3720;48.274;7.796;2022-07-29T01:02:52;21.10;99.90
7360;DHT22;3720;48.274;7.796;2022-07-29T01:05:26;21.00;99.90
7360;DHT22;3720;48.274;7.796;2022-07-29T01:08:02;20.90;99.90
7360;DHT22;3720;48.274;7.796;2022-07-29T01:10:37;20.80;99.90
7360;DHT22;3720;48.274;7.796;2022-07-29T01:13:10;20.80;99.90
7360;DHT22;3720;48.274;7.796;2022-07-29T01:15:45;20.80;99.90
7360;DHT22;3720;48.274;7.796;2022-07-29T01:18:23;20.80;99.90
7360;DHT22;3720;48.274;7.796;2022-07-29T01:21:15;20.80;99.90
7360;DHT22;3720;48.274;7.796;2022-07-29T01:24:09;20.90;99.90
7360;DHT22;3720;48.274;7.796;2022-07-29T01:26:47;20.80;99.90
7360;DHT22;3720;48.274;7.796;2022-07-29T01:29:25;20.60;99.90
7360;DHT22;3720;48.274;7.796;2022-07-29T01:32:02;20.70;99.90
7360;DHT22;3720;48.274;7.796;2022-07-29T01:34:41;20.60;99.90
7360;DHT22;3720;48.274;7.796;2022-07-29T01:37:18;20.60;99.90
7360;DHT22;3720;48.274;7.796;2022-07-29T01:39:54;20.60;99.90
7360;DHT22;3720;48.274;7.796;2022-07-29T01:42:30;20.50;99.90
7360;DHT22;3720;48.274;7.796;2022-07-29T01:45:10;20.50;99.90
7360;DHT22;3720;48.274;7.796;2022-07-29T01:47:49;20.40;99.90
7360;DHT22;3720;48.274;7.796;2022-07-29T01:50:30;20.40;99.90
7360;DHT22;3720;48.274;7.796;2022-07-29T01:53:05;20.40;99.90
7360;DHT22;3720;48.274;7.796;2022-07-29T01:55:40;20.30;99.90
7360;DHT22;3720;48.274;7.796;2022-07-29T01:58:15;20.20;99.90
7360;DHT22;3720;48.274;7.796;2022-07-29T02:00:51;20.10;99.90
7360;DHT22;3720;48.274;7.796;2022-07-29T02:03:24;20.10;99.90
7360;DHT22;3720;48.274;7.796;2022-07-29T02:05:58;20.00;99.90
7360;DHT22;3720;48.274;7.796;2022-07-29T02:08:33;20.00;99.90
7360;DHT22;3720;48.274;7.796;2022-07-29T02:11:07;20.10;99.90
7360;DHT22;3720;48.274;7.796;2022-07-29T02:13:41;20.20;99.90
7360;DHT22;3720;48.274;7.796;2022-07-29T02:16:16;20.20;99.90
7360;DHT22;3720;48.274;7.796;2022-07-29T02:18:53;20.10;99.90
7360;DHT22;3720;48.274;7.796;2022-07-29T02:21:27;20.20;99.90
7360;DHT22;3720;48.274;7.796;2022-07-29T02:24:02;20.20;99.90
7360;DHT22;3720;48.274;7.796;2022-07-29T02:26:35;20.20;99.90
7360;DHT22;3720;48.274;7.796;2022-07-29T02:29:10;20.30;99.90
7360;DHT22;3720;48.274;7.796;2022-07-29T02:31:46;20.30;99.90
7360;DHT22;3720;48.274;7.796;2022-07-29T02:34:20;20.30;99.90
7360;DHT22;3720;48.274;7.796;2022-07-29T02:36:54;20.20;99.90
7360;DHT22;3720;48.274;7.796;2022-07-29T02:39:28;20.10;99.90
7360;DHT22;3720;48.274;7.796;2022-07-29T02:42:05;20.00;99.90
7360;DHT22;3720;48.274;7.796;2022-07-29T02:44:39;19.90;99.90
7360;DHT22;3720;48.274;7.796;2022-07-29T02:47:18;19.90;99.90
7360;DHT22;3720;48.274;7.796;2022-07-29T02:49:55;19.90;99.90
7360;DHT22;3720;48.274;7.796;2022-07-29T02:52:34;19.90;99.90
7360;DHT22;3720;48.274;7.796;2022-07-29T02:55:13;20.00;99.90
7360;DHT22;3720;48.274;7.796;2022-07-29T02:57:49;20.00;99.90
7360;DHT22;3720;48.274;7.796;2022-07-29T03:00:24;20.00;99.90
7360;DHT22;3720;48.274;7.796;2022-07-29T03:03:01;20.10;99.90
7360;DHT22;3720;48.274;7.796;2022-07-29T03:05:35;20.10;99.90
7360;DHT22;3720;48.274;7.796;2022-07-29T03:08:10;20.20;99.90
7360;DHT22;3720;48.274;7.796;2022-07-29T03:10:44;20.10;99.90
7360;DHT22;3720;48.274;7.796;2022-07-29T03:13:16;20.10;99.90
7360;DHT22;3720;48.274;7.796;2022-07-29T03:15:49;20.00;99.90
7360;DHT22;3720;48.274;7.796;2022-07-29T03:18:22;20.00;99.90
7360;DHT22;3720;48.274;7.796;2022-07-29T03:20:54;20.00;99.90
7360;DHT22;3720;48.274;7.796;2022-07-29T03:23:26;20.00;99.90
7360;DHT22;3720;48.274;7.796;2022-07-29T03:25:59;19.90;99.90
7360;DHT22;3720;48.274;7.796;2022-07-29T03:28:31;19.80;99.90
7360;DHT22;3720;48.274;7.796;2022-07-29T03:31:03;19.70;99.90
7360;DHT22;3720;48.274;7.796;2022-07-29T03:33:36;19.70;99.90
7360;DHT22;3720;48.274;7.796;2022-07-29T03:36:08;19.50;99.90
7360;DHT22;3720;48.274;7.796;2022-07-29T03:38:42;19.50;99.90
7360;DHT22;3720;48.274;7.796;2022-07-29T03:41:17;19.50;99.90
7360;DHT22;3720;48.274;7.796;2022-07-29T03:43:50;19.50;99.90
7360;DHT22;3720;48.274;7.796;2022-07-29T03:46:24;19.40;99.90
7360;DHT22;3720;48.274;7.796;2022-07-29T03:49:01;19.40;99.90
7360;DHT22;3720;48.274;7.796;2022-07-29T03:51:35;19.40;99.90
7360;DHT22;3720;48.274;7.796;2022-07-29T03:54:07;19.40;99.90
7360;DHT22;3720;48.274;7.796;2022-07-29T03:56:41;19.50;99.90
7360;DHT22;3720;48.274;7.796;2022-07-29T03:59:17;19.50;99.90
7360;DHT22;3720;48.274;7.796;2022-07-29T04:01:50;19.60;99.90
7360;DHT22;3720;48.274;7.796;2022-07-29T04:04:24;19.60;99.90
7360;DHT22;3720;48.274;7.796;2022-07-29T04:06:56;19.70;99.90
7360;DHT22;3720;48.274;7.796;2022-07-29T04:09:28;19.70;99.90
7360;DHT22;3720;48.274;7.796;2022-07-29T04:12:01;19.60;99.90
7360;DHT22;3720;48.274;7.796;2022-07-29T04:14:33;19.60;99.90
7360;DHT22;3720;48.274;7.796;2022-07-29T04:17:05;19.50;99.90
7360;DHT22;3720;48.274;7.796;2022-07-29T04:19:39;19.50;99.90
7360;DHT22;3720;48.274;7.796;2022-07-29T04:22:11;19.50;99.90
7360;DHT22;3720;48.274;7.796;2022-07-29T04:24:43;19.40;99.90
7360;DHT22;3720;48.274;7.796;2022-07-29T04:27:15;19.40;99.90
7360;DHT22;3720;48.274;7.796;2022-07-29T04:29:47;19.40;99.90
7360;DHT22;3720;48.274;7.796;2022-07-29T04:32:19;19.40;99.90
7360;DHT22;3720;48.274;7.796;2022-07-29T04:34:53;19.40;99.90
7360;DHT22;3720;48.274;7.796;2022-07-29T04:37:24;19.40;99.90
7360;DHT22;3720;48.274;7.796;2022-07-29T04:39:56;19.40;99.90
7360;DHT22;3720;48.274;7.796;2022-07-29T04:42:29;19.40;99.90
7360;DHT22;3720;48.274;7.796;2022-07-29T04:45:01;19.30;99.90
7360;DHT22;3720;48.274;7.796;2022-07-29T04:47:33;19.20;99.90
7360;DHT22;3720;48.274;7.796;2022-07-29T04:50:08;19.20;99.90
7360;DHT22;3720;48.274;7.796;2022-07-29T04:52:40;19.10;99.90
7360;DHT22;3720;48.274;7.796;2022-07-29T04:55:12;19.70;99.90
7360;DHT22;3720;48.274;7.796;2022-07-29T04:57:44;19.60;99.90
7360;DHT22;3720;48.274;7.796;2022-07-29T05:00:16;19.70;99.90
7360;DHT22;3720;48.274;7.796;2022-07-29T05:02:48;19.80;99.90
7360;DHT22;3720;48.274;7.796;2022-07-29T05:05:22;20.20;99.90
7360;DHT22;3720;48.274;7.796;2022-07-29T05:07:54;20.40;99.90
7360;DHT22;3720;48.274;7.796;2022-07-29T05:10:26;20.40;99.90
7360;DHT22;3720;48.274;7.796;2022-07-29T05:12:59;20.40;99.90
7360;DHT22;3720;48.274;7.796;2022-07-29T05:15:31;20.50;99.90
7360;DHT22;3720;48.274;7.796;2022-07-29T05:18:04;20.80;99.90
7360;DHT22;3720;48.274;7.796;2022-07-29T05:20:37;21.10;99.90
7360;DHT22;3720;48.274;7.796;2022-07-29T05:23:10;21.20;99.90
7360;DHT22;3720;48.274;7.796;2022-07-29T05:25:43;21.30;99.90
7360;DHT22;3720;48.274;7.796;2022-07-29T05:28:15;21.30;99.90
7360;DHT22;3720;48.274;7.796;2022-07-29T05:30:47;21.20;99.90
7360;DHT22;3720;48.274;7.796;2022-07-29T05:33:19;21.10;99.90
7360;DHT22;3720;48.274;7.796;2022-07-29T05:35:53;21.10;99.90
7360;DHT22;3720;48.274;7.796;2022-07-29T05:38:25;21.30;99.90
7360;DHT22;3720;48.274;7.796;2022-07-29T05:40:57;21.40;99.90
7360;DHT22;3720;48.274;7.796;2022-07-29T05:43:30;21.40;99.90
7360;DHT22;3720;48.274;7.796;2022-07-29T05:46:02;21.60;99.90
7360;DHT22;3720;48.274;7.796;2022-07-29T05:48:34;21.50;99.90
7360;DHT22;3720;48.274;7.796;2022-07-29T05:51:08;21.40;99.90
7360;DHT22;3720;48.274;7.796;2022-07-29T05:53:40;21.30;99.90
7360;DHT22;3720;48.274;7.796;2022-07-29T05:56:12;21.10;99.90
7360;DHT22;3720;48.274;7.796;2022-07-29T05:58:45;21.10;99.90
7360;DHT22;3720;48.274;7.796;2022-07-29T06:01:17;21.00;99.90
7360;DHT22;3720;48.274;7.796;2022-07-29T06:03:49;20.90;99.90
7360;DHT22;3720;48.274;7.796;2022-07-29T06:06:23;20.90;99.90
7360;DHT22;3720;48.274;7.796;2022-07-29T06:08:55;20.90;99.90
7360;DHT22;3720;48.274;7.796;2022-07-29T06:11:27;21.00;99.90
7360;DHT22;3720;48.274;7.796;2022-07-29T06:13:59;21.00;99.90
7360;DHT22;3720;48.274;7.796;2022-07-29T06:16:33;21.10;99.90
7360;DHT22;3720;48.274;7.796;2022-07-29T06:19:05;21.20;99.90
7360;DHT22;3720;48.274;7.796;2022-07-29T06:21:41;21.20;99.90
7360;DHT22;3720;48.274;7.796;2022-07-29T06:24:14;21.30;99.90
7360;DHT22;3720;48.274;7.796;2022-07-29T06:26:47;21.50;99.90
7360;DHT22;3720;48.274;7.796;2022-07-29T06:29:19;21.60;99.90
7360;DHT22;3720;48.274;7.796;2022-07-29T06:31:52;21.70;99.90
7360;DHT22;3720;48.274;7.796;2022-07-29T06:34:24;21.80;99.90
7360;DHT22;3720;48.274;7.796;2022-07-29T06:36:57;21.90;99.90
7360;DHT22;3720;48.274;7.796;2022-07-29T06:39:29;22.00;99.90
7360;DHT22;3720;48.274;7.796;2022-07-29T06:42:01;22.00;99.90
7360;DHT22;3720;48.274;7.796;2022-07-29T06:44:33;22.10;99.90
7360;DHT22;3720;48.274;7.796;2022-07-29T06:47:05;22.10;99.90
7360;DHT22;3720;48.274;7.796;2022-07-29T06:49:37;22.20;99.90
7360;DHT22;3720;48.274;7.796;2022-07-29T06:52:11;22.30;99.90
7360;DHT22;3720;48.274;7.796;2022-07-29T06:54:43;22.40;99.90
7360;DHT22;3720;48.274;7.796;2022-07-29T06:57:18;22.40;99.90
7360;DHT22;3720;48.274;7.796;2022-07-29T06:59:51;22.50;99.90
7360;DHT22;3720;48.274;7.796;2022-07-29T07:02:22;22.70;99.90
7360;DHT22;3720;48.274;7.796;2022-07-29T07:04:55;22.80;99.90
7360;DHT22;3720;48.274;7.796;2022-07-29T07:07:28;22.90;99.90
7360;DHT22;3720;48.274;7.796;2022-07-29T07:10:00;23.00;99.90
7360;DHT22;3720;48.274;7.796;2022-07-29T07:12:32;23.10;99.90
7360;DHT22;3720;48.274;7.796;2022-07-29T07:15:05;23.20;99.90
7360;DHT22;3720;48.274;7.796;2022-07-29T07:17:38;23.30;99.90
7360;DHT22;3720;48.274;7.796;2022-07-29T07:20:10;23.50;99.90
7360;DHT22;3720;48.274;7.796;2022-07-29T07:22:44;23.60;99.90
7360;DHT22;3720;48.274;7.796;2022-07-29T07:25:16;23.60;99.90
7360;DHT22;3720;48.274;7.796;2022-07-29T07:27:48;23.60;99.90
7360;DHT22;3720;48.274;7.796;2022-07-29T07:30:21;23.60;99.90
7360;DHT22;3720;48.274;7.796;2022-07-29T07:32:53;23.70;99.90
7360;DHT22;3720;48.274;7.796;2022-07-29T07:35:25;23.80;99.90
7360;DHT22;3720;48.274;7.796;2022-07-29T07:38:00;23.90;99.90
7360;DHT22;3720;48.274;7.796;2022-07-29T07:40:32;24.00;99.90
7360;DHT22;3720;48.274;7.796;2022-07-29T07:43:04;24.10;99.90
7360;DHT22;3720;48.274;7.796;2022-07-29T07:45:37;24.10;99.90
7360;DHT22;3720;48.274;7.796;2022-07-29T07:48:10;24.10;99.90
7360;DHT22;3720;48.274;7.796;2022-07-29T07:50:42;24.10;99.90
7360;DHT22;3720;48.274;7.796;2022-07-29T07:53:16;24.00;99.90
7360;DHT22;3720;48.274;7.796;2022-07-29T07:55:49;24.00;99.90
7360;DHT22;3720;48.274;7.796;2022-07-29T07:58:20;24.00;99.90
7360;DHT22;3720;48.274;7.796;2022-07-29T08:00:53;24.10;99.90
7360;DHT22;3720;48.274;7.796;2022-07-29T08:03:25;24.10;99.90
7360;DHT22;3720;48.274;7.796;2022-07-29T08:05:57;24.10;99.90
7360;DHT22;3720;48.274;7.796;2022-07-29T08:08:30;24.30;99.90
7360;DHT22;3720;48.274;7.796;2022-07-29T08:11:03;24.30;99.90
7360;DHT22;3720;48.274;7.796;2022-07-29T08:13:37;24.40;99.90
7360;DHT22;3720;48.274;7.796;2022-07-29T08:16:09;24.40;99.90
7360;DHT22;3720;48.274;7.796;2022-07-29T08:18:46;24.40;99.90
7360;DHT22;3720;48.274;7.796;2022-07-29T08:21:18;24.40;99.90
7360;DHT22;3720;48.274;7.796;2022-07-29T08:23:52;24.40;99.90
7360;DHT22;3720;48.274;7.796;2022-07-29T08:26:44;24.50;99.90
7360;DHT22;3720;48.274;7.796;2022-07-29T08:29:17;24.60;99.90
7360;DHT22;3720;48.274;7.796;2022-07-29T08:31:48;24.70;99.90
7360;DHT22;3720;48.274;7.796;2022-07-29T08:34:20;24.70;99.90
7360;DHT22;3720;48.274;7.796;2022-07-29T08:36:52;24.70;99.90
7360;DHT22;3720;48.274;7.796;2022-07-29T08:39:26;24.70;99.90
7360;DHT22;3720;48.274;7.796;2022-07-29T08:41:58;24.80;99.90
7360;DHT22;3720;48.274;7.796;2022-07-29T08:44:31;24.90;99.90
7360;DHT22;3720;48.274;7.796;2022-07-29T08:47:05;24.90;99.90
7360;DHT22;3720;48.274;7.796;2022-07-29T08:49:37;24.90;99.90
7360;DHT22;3720;48.274;7.796;2022-07-29T08:52:10;25.00;99.90
7360;DHT22;3720;48.274;7.796;2022-07-29T08:54:45;25.00;99.90
7360;DHT22;3720;48.274;7.796;2022-07-29T08:57:17;25.10;99.90
7360;DHT22;3720;48.274;7.796;2022-07-29T08:59:50;25.20;99.90
7360;DHT22;3720;48.274;7.796;2022-07-29T09:02:25;25.20;99.90
7360;DHT22;3720;48.274;7.796;2022-07-29T09:05:00;25.30;99.90
7360;DHT22;3720;48.274;7.796;2022-07-29T09:07:33;25.30;99.90
7360;DHT22;3720;48.274;7.796;2022-07-29T09:10:09;25.50;99.90
7360;DHT22;3720;48.274;7.796;2022-07-29T09:12:42;25.40;99.90
7360;DHT22;3720;48.274;7.796;2022-07-29T09:15:14;25.40;99.90
7360;DHT22;3720;48.274;7.796;2022-07-29T09:17:47;25.40;99.90
7360;DHT22;3720;48.274;7.796;2022-07-29T09:20:21;25.40;99.90
7360;DHT22;3720;48.274;7.796;2022-07-29T09:22:53;25.40;99.90
7360;DHT22;3720;48.274;7.796;2022-07-29T09:25:34;25.50;99.90
7360;DHT22;3720;48.274;7.796;2022-07-29T09:28:07;25.60;99.90
7360;DHT22;3720;48.274;7.796;2022-07-29T09:30:50;25.70;99.90
7360;DHT22;3720;48.274;7.796;2022-07-29T09:33:24;25.80;99.90
7360;DHT22;3720;48.274;7.796;2022-07-29T09:36:00;26.00;99.90
7360;DHT22;3720;48.274;7.796;2022-07-29T09:38:35;26.20;99.90
7360;DHT22;3720;48.274;7.796;2022-07-29T09:41:10;26.40;99.90
7360;DHT22;3720;48.274;7.796;2022-07-29T09:43:53;26.50;99.90
7360;DHT22;3720;48.274;7.796;2022-07-29T09:46:26;26.60;99.90
7360;DHT22;3720;48.274;7.796;2022-07-29T09:49:08;26.70;99.90
7360;DHT22;3720;48.274;7.796;2022-07-29T09:51:40;26.70;99.90
7360;DHT22;3720;48.274;7.796;2022-07-29T09:54:22;26.80;99.90
7360;DHT22;3720;48.274;7.796;2022-07-29T09:56:56;26.90;99.90
7360;DHT22;3720;48.274;7.796;2022-07-29T09:59:28;27.00;99.90
7360;DHT22;3720;48.274;7.796;2022-07-29T10:02:00;27.10;99.90
7360;DHT22;3720;48.274;7.796;2022-07-29T10:04:40;27.30;99.90
7360;DHT22;3720;48.274;7.796;2022-07-29T10:07:13;27.40;99.90
7360;DHT22;3720;48.274;7.796;2022-07-29T10:09:52;27.60;99.90
7360;DHT22;3720;48.274;7.796;2022-07-29T10:12:26;27.90;99.90
7360;DHT22;3720;48.274;7.796;2022-07-29T10:14:58;28.10;99.90
7360;DHT22;3720;48.274;7.796;2022-07-29T10:17:33;28.30;99.90
7360;DHT22;3720;48.274;7.796;2022-07-29T10:20:07;28.30;99.90
7360;DHT22;3720;48.274;7.796;2022-07-29T10:22:40;28.40;99.90
7360;DHT22;3720;48.274;7.796;2022-07-29T10:25:12;28.50;99.90
7360;DHT22;3720;48.274;7.796;2022-07-29T10:27:48;28.50;99.90
7360;DHT22;3720;48.274;7.796;2022-07-29T10:30:22;28.60;99.90
7360;DHT22;3720;48.274;7.796;2022-07-29T10:33:18;28.60;99.90
7360;DHT22;3720;48.274;7.796;2022-07-29T10:36:07;28.70;99.60
7360;DHT22;3720;48.274;7.796;2022-07-29T10:38:47;28.70;99.90
7360;DHT22;3720;48.274;7.796;2022-07-29T10:44:21;28.30;99.50
7360;DHT22;3720;48.274;7.796;2022-07-29T10:46:55;28.80;99.20
7360;DHT22;3720;48.274;7.796;2022-07-29T10:49:28;29.00;99.60
7360;DHT22;3720;48.274;7.796;2022-07-29T10:52:03;29.20;99.90
7360;DHT22;3720;48.274;7.796;2022-07-29T10:54:46;29.50;99.20
7360;DHT22;3720;48.274;7.796;2022-07-29T10:57:23;29.90;97.40
7360;DHT22;3720;48.274;7.796;2022-07-29T11:00:27;30.00;97.90
7360;DHT22;3720;48.274;7.796;2022-07-29T11:02:59;29.90;95.60
7360;DHT22;3720;48.274;7.796;2022-07-29T11:05:51;29.60;96.20
7360;DHT22;3720;48.274;7.796;2022-07-29T11:08:24;29.50;97.70
7360;DHT22;3720;48.274;7.796;2022-07-29T11:14:11;29.40;97.80
7360;DHT22;3720;48.274;7.796;2022-07-29T11:17:02;29.40;97.80
7360;DHT22;3720;48.274;7.796;2022-07-29T11:19:34;29.40;97.20
7360;DHT22;3720;48.274;7.796;2022-07-29T11:22:09;29.40;96.50
7360;DHT22;3720;48.274;7.796;2022-07-29T11:24:42;29.30;95.50
7360;DHT22;3720;48.274;7.796;2022-07-29T11:27:15;29.10;96.20
7360;DHT22;3720;48.274;7.796;2022-07-29T11:29:53;29.10;95.70
7360;DHT22;3720;48.274;7.796;2022-07-29T11:32:36;28.90;95.30
7360;DHT22;3720;48.274;7.796;2022-07-29T11:35:14;28.80;94.30
7360;DHT22;3720;48.274;7.796;2022-07-29T11:41:21;28.50;94.70
7360;DHT22;3720;48.274;7.796;2022-07-29T11:43:55;28.50;93.90
7360;DHT22;3720;48.274;7.796;2022-07-29T11:46:46;28.40;94.20
7360;DHT22;3720;48.274;7.796;2022-07-29T11:49:19;28.50;94.40
7360;DHT22;3720;48.274;7.796;2022-07-29T11:51:53;28.50;95.00
7360;DHT22;3720;48.274;7.796;2022-07-29T11:54:26;28.50;95.30
7360;DHT22;3720;48.274;7.796;2022-07-29T11:57:00;28.50;94.30
7360;DHT22;3720;48.274;7.796;2022-07-29T11:59:38;28.50;96.20
7360;DHT22;3720;48.274;7.796;2022-07-29T12:02:13;28.40;96.20
7360;DHT22;3720;48.274;7.796;2022-07-29T12:04:49;28.50;96.50
7360;DHT22;3720;48.274;7.796;2022-07-29T12:07:26;28.50;95.30
7360;DHT22;3720;48.274;7.796;2022-07-29T12:09:59;28.50;95.70
7360;DHT22;3720;48.274;7.796;2022-07-29T12:12:33;28.60;97.00
7360;DHT22;3720;48.274;7.796;2022-07-29T12:15:15;28.60;96.00
7360;DHT22;3720;48.274;7.796;2022-07-29T12:17:50;28.50;95.50
7360;DHT22;3720;48.274;7.796;2022-07-29T12:20:23;28.30;95.90
7360;DHT22;3720;48.274;7.796;2022-07-29T12:22:56;28.20;96.10
7360;DHT22;3720;48.274;7.796;2022-07-29T12:25:33;28.20;95.90
7360;DHT22;3720;48.274;7.796;2022-07-29T12:28:09;28.20;97.10
7360;DHT22;3720;48.274;7.796;2022-07-29T12:30:43;28.20;96.60
7360;DHT22;3720;48.274;7.796;2022-07-29T12:33:19;28.20;96.30
7360;DHT22;3720;48.274;7.796;2022-07-29T12:35:54;28.30;96.20
7360;DHT22;3720;48.274;7.796;2022-07-29T12:38:27;28.30;95.90
7360;DHT22;3720;48.274;7.796;2022-07-29T12:40:59;28.30;95.30
7360;DHT22;3720;48.274;7.796;2022-07-29T12:43:33;28.20;94.20
7360;DHT22;3720;48.274;7.796;2022-07-29T12:46:12;28.10;94.10
7360;DHT22;3720;48.274;7.796;2022-07-29T12:48:44;28.10;95.10
7360;DHT22;3720;48.274;7.796;2022-07-29T12:51:16;28.20;95.40
7360;DHT22;3720;48.274;7.796;2022-07-29T12:54:03;28.40;95.70
7360;DHT22;3720;48.274;7.796;2022-07-29T12:56:35;28.40;93.90
7360;DHT22;3720;48.274;7.796;2022-07-29T12:59:14;28.40;96.70
7360;DHT22;3720;48.274;7.796;2022-07-29T13:01:49;28.40;96.50
7360;DHT22;3720;48.274;7.796;2022-07-29T13:04:25;28.40;95.40
7360;DHT22;3720;48.274;7.796;2022-07-29T13:06:59;28.40;95.70
7360;DHT22;3720;48.274;7.796;2022-07-29T13:09:39;28.40;95.30
7360;DHT22;3720;48.274;7.796;2022-07-29T13:12:13;28.50;94.80
7360;DHT22;3720;48.274;7.796;2022-07-29T13:14:48;28.50;95.20
7360;DHT22;3720;48.274;7.796;2022-07-29T13:17:21;28.50;96.40
7360;DHT22;3720;48.274;7.796;2022-07-29T13:20:06;28.40;96.60
7360;DHT22;3720;48.274;7.796;2022-07-29T13:22:40;28.40;97.80
7360;DHT22;3720;48.274;7.796;2022-07-29T13:25:13;28.30;98.90
7360;DHT22;3720;48.274;7.796;2022-07-29T13:27:45;28.30;95.50
7360;DHT22;3720;48.274;7.796;2022-07-29T13:30:19;28.40;96.00
7360;DHT22;3720;48.274;7.796;2022-07-29T13:32:52;28.40;97.00
7360;DHT22;3720;48.274;7.796;2022-07-29T13:35:25;28.50;97.90
7360;DHT22;3720;48.274;7.796;2022-07-29T13:38:00;28.40;97.40
7360;DHT22;3720;48.274;7.796;2022-07-29T13:40:32;28.50;96.70
7360;DHT22;3720;48.274;7.796;2022-07-29T13:43:05;28.50;96.90
7360;DHT22;3720;48.274;7.796;2022-07-29T13:45:42;28.50;97.00
7360;DHT22;3720;48.274;7.796;2022-07-29T13:48:14;28.60;98.50
7360;DHT22;3720;48.274;7.796;2022-07-29T13:50:46;28.60;98.00
7360;DHT22;3720;48.274;7.796;2022-07-29T13:53:18;28.60;99.20
7360;DHT22;3720;48.274;7.796;2022-07-29T13:55:50;28.50;96.80
7360;DHT22;3720;48.274;7.796;2022-07-29T13:58:22;28.30;97.60
7360;DHT22;3720;48.274;7.796;2022-07-29T14:00:56;28.30;97.50
7360;DHT22;3720;48.274;7.796;2022-07-29T14:03:29;28.10;97.20
7360;DHT22;3720;48.274;7.796;2022-07-29T14:06:01;28.00;97.40
7360;DHT22;3720;48.274;7.796;2022-07-29T14:08:34;28.00;96.10
7360;DHT22;3720;48.274;7.796;2022-07-29T14:11:06;28.00;97.30
7360;DHT22;3720;48.274;7.796;2022-07-29T14:13:38;28.00;97.10
7360;DHT22;3720;48.274;7.796;2022-07-29T14:16:12;28.00;96.80
7360;DHT22;3720;48.274;7.796;2022-07-29T14:18:44;28.20;95.60
7360;DHT22;3720;48.274;7.796;2022-07-29T14:21:16;28.40;95.50
7360;DHT22;3720;48.274;7.796;2022-07-29T14:23:48;28.50;93.50
7360;DHT22;3720;48.274;7.796;2022-07-29T14:26:22;28.50;93.40
7360;DHT22;3720;48.274;7.796;2022-07-29T14:28:54;28.50;92.50
7360;DHT22;3720;48.274;7.796;2022-07-29T14:31:28;28.50;93.10
7360;DHT22;3720;48.274;7.796;2022-07-29T14:34:01;28.40;92.60
7360;DHT22;3720;48.274;7.796;2022-07-29T14:36:33;28.40;93.40
7360;DHT22;3720;48.274;7.796;2022-07-29T14:39:05;28.30;93.70
7360;DHT22;3720;48.274;7.796;2022-07-29T14:41:37;28.30;93.80
7360;DHT22;3720;48.274;7.796;2022-07-29T14:44:09;28.20;94.90
7360;DHT22;3720;48.274;7.796;2022-07-29T14:46:42;28.30;95.10
7360;DHT22;3720;48.274;7.796;2022-07-29T14:49:14;28.30;96.10
7360;DHT22;3720;48.274;7.796;2022-07-29T14:51:46;28.50;95.10
7360;DHT22;3720;48.274;7.796;2022-07-29T14:54:19;28.60;95.00
7360;DHT22;3720;48.274;7.796;2022-07-29T14:56:51;28.60;95.00
7360;DHT22;3720;48.274;7.796;2022-07-29T14:59:27;28.60;96.00
7360;DHT22;3720;48.274;7.796;2022-07-29T15:02:00;28.60;95.20
7360;DHT22;3720;48.274;7.796;2022-07-29T15:04:32;28.50;95.70
7360;DHT22;3720;48.274;7.796;2022-07-29T15:07:04;28.30;97.50
7360;DHT22;3720;48.274;7.796;2022-07-29T15:09:36;28.00;97.40
7360;DHT22;3720;48.274;7.796;2022-07-29T15:12:08;27.80;97.70
7360;DHT22;3720;48.274;7.796;2022-07-29T15:14:41;27.60;97.90
7360;DHT22;3720;48.274;7.796;2022-07-29T15:17:15;27.50;98.30
7360;DHT22;3720;48.274;7.796;2022-07-29T15:19:47;27.50;98.80
7360;DHT22;3720;48.274;7.796;2022-07-29T15:22:19;27.60;99.20
7360;DHT22;3720;48.274;7.796;2022-07-29T15:24:51;27.50;98.90
7360;DHT22;3720;48.274;7.796;2022-07-29T15:27:23;27.50;99.10
7360;DHT22;3720;48.274;7.796;2022-07-29T15:29:55;27.50;97.80
7360;DHT22;3720;48.274;7.796;2022-07-29T15:32:29;27.60;99.60
7360;DHT22;3720;48.274;7.796;2022-07-29T15:35:01;27.70;99.40
7360;DHT22;3720;48.274;7.796;2022-07-29T15:37:33;27.70;98.60
7360;DHT22;3720;48.274;7.796;2022-07-29T15:40:06;27.70;97.90
7360;DHT22;3720;48.274;7.796;2022-07-29T15:42:38;27.60;98.30
7360;DHT22;3720;48.274;7.796;2022-07-29T15:45:11;27.50;98.80
7360;DHT22;3720;48.274;7.796;2022-07-29T15:47:44;27.60;98.40
7360;DHT22;3720;48.274;7.796;2022-07-29T15:50:16;27.70;99.00
7360;DHT22;3720;48.274;7.796;2022-07-29T15:52:49;27.90;97.10
7360;DHT22;3720;48.274;7.796;2022-07-29T15:55:21;27.80;97.50
7360;DHT22;3720;48.274;7.796;2022-07-29T15:57:54;27.80;96.80
7360;DHT22;3720;48.274;7.796;2022-07-29T16:00:25;27.50;97.10
7360;DHT22;3720;48.274;7.796;2022-07-29T16:02:59;27.40;98.00
7360;DHT22;3720;48.274;7.796;2022-07-29T16:05:31;27.40;98.00
7360;DHT22;3720;48.274;7.796;2022-07-29T16:08:03;27.60;99.10
7360;DHT22;3720;48.274;7.796;2022-07-29T16:10:35;27.90;96.90
7360;DHT22;3720;48.274;7.796;2022-07-29T16:13:08;28.00;96.80
7360;DHT22;3720;48.274;7.796;2022-07-29T16:15:40;28.10;95.60
7360;DHT22;3720;48.274;7.796;2022-07-29T16:18:14;28.20;96.90
7360;DHT22;3720;48.274;7.796;2022-07-29T16:20:45;28.40;97.00
7360;DHT22;3720;48.274;7.796;2022-07-29T16:23:18;28.40;94.90
7360;DHT22;3720;48.274;7.796;2022-07-29T16:25:50;28.40;93.80
7360;DHT22;3720;48.274;7.796;2022-07-29T16:28:22;28.10;93.70
7360;DHT22;3720;48.274;7.796;2022-07-29T16:30:54;27.90;94.00
7360;DHT22;3720;48.274;7.796;2022-07-29T16:33:28;27.70;94.20
7360;DHT22;3720;48.274;7.796;2022-07-29T16:36:00;27.80;94.40
7360;DHT22;3720;48.274;7.796;2022-07-29T16:38:32;27.80;93.70
7360;DHT22;3720;48.274;7.796;2022-07-29T16:41:04;27.90;94.80
7360;DHT22;3720;48.274;7.796;2022-07-29T16:43:36;28.00;94.90
7360;DHT22;3720;48.274;7.796;2022-07-29T16:46:09;28.10;93.60
7360;DHT22;3720;48.274;7.796;2022-07-29T16:48:43;28.20;93.30
7360;DHT22;3720;48.274;7.796;2022-07-29T16:51:15;28.20;93.20
7360;DHT22;3720;48.274;7.796;2022-07-29T16:53:47;28.30;92.90
7360;DHT22;3720;48.274;7.796;2022-07-29T16:56:19;28.40;93.60